Time;durP1;ratioP1;P1;durP2;ratioP2;P2;SDS_P1;SDS_P2;PMS_P1;PMS_P2;Temp;Humidity;BMP_temperature;BMP_pressure;BME280_temperature;BME280_humidity;BME280_pressure;Samples;Min_cycle;Max_cycle;Signal;HPM_P1;HPM_P2
2022/01/17 00:01:28;;;;;;;32.17;27.97;;;;;;;5.39;62.88;99102.66;8462927;28;20229;-67
2022/01/17 00:05:32;;;;;;;31.63;27.57;;;;;;;5.24;62.98;99101.00;8464521;28;20222;-68
2022/01/17 00:09:34;;;;;;;33.27;28.27;;;;;;;5.51;62.74;99100.00;8467237;28;20221;-67
2022/01/17 00:13:40;;;;;;;33.43;27.57;;;;;;;5.48;62.92;99100.88;8470514;28;20228;-69
2022/01/17 00:17:47;;;;;;;30.27;25.90;;;;;;;5.38;62.71;99113.78;8460542;28;20234;-67
2022/01/17 00:21:50;;;;;;;29.90;24.80;;;;;;;5.44;62.97;99116.31;8463110;28;20226;-67
2022/01/17 00:25:53;;;;;;;31.17;26.53;;;;;;;5.53;62.41;99112.84;8481422;28;20500;-68
2022/01/17 00:29:58;;;;;;;31.50;26.13;;;;;;;5.48;62.88;99115.44;8482571;28;20229;-67
2022/01/17 00:34:01;;;;;;;28.30;23.63;;;;;;;5.52;62.89;99116.28;8482459;28;20233;-67
2022/01/17 00:38:04;;;;;;;26.13;23.00;;;;;;;5.46;63.43;99115.47;8481366;28;20226;-67
2022/01/17 00:42:07;;;;;;;27.00;23.70;;;;;;;5.52;63.31;99140.28;8457805;28;20222;-67
2022/01/17 00:46:12;;;;;;;27.97;24.07;;;;;;;5.40;63.82;99130.03;8448582;28;20226;-67
2022/01/17 00:50:15;;;;;;;27.50;22.87;;;;;;;5.52;63.40;99116.28;8448474;28;20229;-67
2022/01/17 00:54:18;;;;;;;28.70;23.67;;;;;;;5.52;63.46;99121.41;8448115;28;20229;-67
2022/01/17 00:58:21;;;;;;;25.67;22.03;;;;;;;5.63;63.40;99105.06;8448525;28;20226;-67
2022/01/17 01:02:25;;;;;;;28.13;24.43;;;;;;;5.59;63.42;99102.53;8448204;28;20226;-67
2022/01/17 01:06:30;;;;;;;25.83;23.03;;;;;;;5.71;62.82;99088.75;8447944;28;20234;-67
2022/01/17 01:10:33;;;;;;;27.87;23.33;;;;;;;5.62;62.90;99071.69;8447220;28;20234;-67
2022/01/17 01:14:40;;;;;;;26.30;23.50;;;;;;;5.66;62.87;99075.94;8447707;28;20234;-68
2022/01/17 01:19:07;;;;;;;26.13;23.10;;;;;;;5.79;62.69;99064.69;8448235;28;20244;-67
2022/01/17 01:27:54;;;;;;;26.50;23.57;;;;;;;5.59;63.27;99072.53;8480432;28;20255;-68
2022/01/17 01:32:02;;;;;;;27.40;23.50;;;;;;;5.58;63.17;99067.41;8480580;28;20233;-67
2022/01/17 01:36:12;;;;;;;26.97;23.77;;;;;;;5.48;63.45;99079.47;8480970;28;20235;-67
2022/01/17 01:40:16;;;;;;;28.90;24.90;;;;;;;5.42;63.46;99074.38;8480622;28;20229;-67
2022/01/17 01:44:21;;;;;;;29.70;25.17;;;;;;;5.65;62.91;99079.34;8481976;28;20245;-67
2022/01/17 01:48:25;;;;;;;28.07;24.97;;;;;;;5.77;62.49;99069.00;8482853;28;20197;-67
2022/01/17 01:52:29;;;;;;;30.03;26.07;;;;;;;5.49;63.37;99078.63;8489951;28;20205;-67
2022/01/17 01:56:32;;;;;;;31.20;26.00;;;;;;;5.56;62.41;99067.44;8487850;28;20229;-67
2022/01/17 02:00:35;;;;;;;31.00;26.23;;;;;;;5.73;62.51;99066.44;8487477;28;20523;-67
2022/01/17 02:04:38;;;;;;;31.07;26.33;;;;;;;5.62;62.82;99072.53;8487080;28;20233;-67
2022/01/17 02:08:42;;;;;;;30.97;27.30;;;;;;;5.70;62.87;99087.91;8487146;28;20410;-67
2022/01/17 02:12:45;;;;;;;31.03;27.17;;;;;;;5.77;62.24;99091.25;8487098;28;20229;-67
2022/01/17 02:16:50;;;;;;;31.97;27.87;;;;;;;5.66;62.96;99097.34;8486961;28;20244;-67
2022/01/17 02:21:11;;;;;;;30.93;26.50;;;;;;;5.71;62.68;99099.03;8487116;28;20240;-67
2022/01/17 02:25:14;;;;;;;31.73;27.87;;;;;;;5.62;63.05;99098.22;8487251;28;20252;-68
2022/01/17 02:29:17;;;;;;;32.07;28.00;;;;;;;5.64;63.10;99091.34;8486727;28;20395;-67
2022/01/17 02:33:20;;;;;;;32.33;27.87;;;;;;;5.70;63.12;99082.75;8486265;28;20241;-68
2022/01/17 02:37:25;;;;;;;33.17;27.20;;;;;;;5.32;63.83;99081.28;8486461;28;20233;-68
2022/01/17 02:41:29;;;;;;;35.00;29.07;;;;;;;5.45;63.85;99079.50;8486291;28;20229;-68
2022/01/17 02:45:35;;;;;;;32.87;28.43;;;;;;;5.43;64.13;99070.94;8451748;28;20237;-67
2022/01/17 02:49:38;;;;;;;33.87;28.20;;;;;;;5.57;63.55;99069.13;8452553;28;20251;-68
2022/01/17 02:53:42;;;;;;;33.20;29.30;;;;;;;5.42;63.61;99074.38;8452380;28;20226;-67
2022/01/17 02:57:45;;;;;;;32.77;28.10;;;;;;;5.55;63.40;99067.44;8451814;28;20234;-67
2022/01/17 03:01:49;;;;;;;33.13;27.90;;;;;;;5.43;63.82;99070.94;8450690;28;20396;-67
2022/01/17 03:05:52;;;;;;;30.77;25.93;;;;;;;5.59;63.65;99061.41;8451329;28;20307;-67
2022/01/17 03:10:03;;;;;;;30.50;27.10;;;;;;;5.62;63.14;99063.97;8451594;28;20529;-67
2022/01/17 03:14:06;;;;;;;31.93;27.40;;;;;;;5.66;62.75;99068.22;8451480;28;20230;-67
2022/01/17 03:18:10;;;;;;;30.67;25.40;;;;;;;5.56;63.69;99066.56;8451105;28;20230;-67
2022/01/17 03:22:13;;;;;;;26.53;23.63;;;;;;;5.60;63.64;99065.72;8451228;28;20545;-67
2022/01/17 03:26:17;;;;;;;28.33;24.77;;;;;;;5.44;64.12;99050.34;8451202;28;20226;-67
2022/01/17 03:30:22;;;;;;;28.73;25.13;;;;;;;5.18;64.07;99052.22;8450736;28;20226;-67
2022/01/17 03:34:25;;;;;;;27.10;24.20;;;;;;;5.36;64.44;99059.84;8450410;28;20288;-67
2022/01/17 03:38:30;;;;;;;31.83;25.23;;;;;;;5.32;64.13;99047.03;8450623;28;20230;-67
2022/01/17 03:42:36;;;;;;;31.07;25.43;;;;;;;5.39;64.44;99047.00;8483768;28;20282;-67
2022/01/17 03:46:38;;;;;;;28.30;24.43;;;;;;;5.47;64.00;99045.22;8483896;28;20237;-67
2022/01/17 03:50:42;;;;;;;29.30;25.00;;;;;;;5.66;63.53;99056.22;8483880;28;20228;-67
2022/01/17 03:54:45;;;;;;;27.93;24.57;;;;;;;5.55;63.65;99073.44;8483441;28;20234;-67
2022/01/17 03:58:50;;;;;;;27.97;24.77;;;;;;;5.65;63.09;99066.50;8483804;28;20240;-67
2022/01/17 04:02:53;;;;;;;29.03;24.80;;;;;;;5.52;63.91;99090.56;8483597;28;20521;-67
2022/01/17 04:06:56;;;;;;;29.00;24.37;;;;;;;5.63;63.57;99088.78;8483265;28;20434;-67
2022/01/17 04:10:59;;;;;;;30.90;25.83;;;;;;;5.53;63.84;99085.44;8483162;28;20229;-67
2022/01/17 04:15:04;;;;;;;31.77;24.43;;;;;;;5.53;63.93;99059.75;8483059;28;20225;-67
2022/01/17 04:19:09;;;;;;;30.00;24.63;;;;;;;5.75;63.48;99075.88;8482684;28;20222;-67
2022/01/17 04:23:14;;;;;;;31.37;25.00;;;;;;;5.67;63.59;99065.66;8482836;28;20551;-67
2022/01/17 04:27:17;;;;;;;27.70;24.20;;;;;;;5.66;63.17;99066.50;8482720;28;20240;-67
2022/01/17 04:31:21;;;;;;;27.17;23.63;;;;;;;5.77;63.12;99058.72;8482514;28;20253;-67
2022/01/17 04:35:26;;;;;;;27.27;23.40;;;;;;;5.76;63.31;99056.16;8482165;28;20249;-66
2022/01/17 04:39:29;;;;;;;29.10;24.87;;;;;;;5.82;63.02;99046.66;8482184;28;20225;-67
2022/01/17 04:43:56;;;;;;;26.90;23.87;;;;;;;5.70;63.26;99045.94;8481804;28;20221;-67
2022/01/17 04:48:01;;;;;;;30.10;25.97;;;;;;;5.79;63.01;99058.72;8481877;28;20254;-67
2022/01/17 04:52:12;;;;;;;29.63;25.77;;;;;;;5.73;62.75;99064.75;8481634;28;20236;-67
2022/01/17 04:56:15;;;;;;;30.77;26.07;;;;;;;5.59;63.61;99085.38;8481666;28;20233;-67
2022/01/17 05:00:20;;;;;;;28.97;24.90;;;;;;;5.74;63.25;99097.28;8449359;28;20231;-67
2022/01/17 05:04:24;;;;;;;31.27;26.70;;;;;;;5.84;62.89;99108.34;8414326;28;20316;-67
2022/01/17 05:08:27;;;;;;;30.53;25.00;;;;;;;5.69;63.34;99119.59;8413988;28;20557;-67
2022/01/17 05:12:30;;;;;;;28.87;25.37;;;;;;;5.68;63.11;99123.88;8413846;28;20227;-67
2022/01/17 05:16:37;;;;;;;28.80;24.73;;;;;;;5.68;63.40;99108.47;8413708;28;20575;-68
2022/01/17 05:20:43;;;;;;;31.37;26.67;;;;;;;5.77;62.46;99101.53;8413974;28;20419;-67
2022/01/17 05:24:46;;;;;;;28.17;24.70;;;;;;;5.86;62.78;99115.22;8413417;28;20537;-67
2022/01/17 05:28:49;;;;;;;30.17;25.70;;;;;;;5.74;62.83;99101.59;8413979;28;20235;-67
2022/01/17 05:32:53;;;;;;;30.13;25.13;;;;;;;5.85;62.67;99097.22;8413991;28;20226;-67
2022/01/17 05:36:58;;;;;;;27.97;22.97;;;;;;;5.80;62.88;99091.25;8413841;28;20237;-67
2022/01/17 05:41:01;;;;;;;28.30;24.43;;;;;;;5.78;63.30;99098.13;8428218;28;20234;-67
2022/01/17 05:45:04;;;;;;;29.43;25.07;;;;;;;5.79;63.18;99087.00;8447260;28;20412;-67
2022/01/17 05:49:08;;;;;;;31.67;25.07;;;;;;;5.87;62.84;99100.63;8447058;28;20230;-67
2022/01/17 05:53:13;;;;;;;31.17;25.87;;;;;;;5.60;64.04;99099.13;8446691;28;20433;-67
2022/01/17 05:57:17;;;;;;;29.33;24.80;;;;;;;5.66;63.70;99107.63;8469990;28;20229;-67
2022/01/17 06:01:20;;;;;;;32.57;25.57;;;;;;;5.64;63.60;99103.38;8477801;28;20419;-67
2022/01/17 06:05:24;;;;;;;31.67;25.63;;;;;;;5.61;63.96;99093.09;8479657;28;20241;-66
2022/01/17 06:09:28;;;;;;;33.23;27.40;;;;;;;5.56;63.98;99093.13;8480079;28;20237;-66
2022/01/17 06:13:31;;;;;;;35.50;28.23;;;;;;;5.52;63.98;99080.28;8479556;28;20521;-68
2022/01/17 06:17:34;;;;;;;38.20;30.17;;;;;;;5.56;63.98;99090.56;8480022;28;20544;-67
2022/01/17 06:21:37;;;;;;;37.67;29.43;;;;;;;5.25;64.56;99062.50;8479916;28;20233;-67
2022/01/17 06:25:42;;;;;;;34.53;28.03;;;;;;;5.56;64.01;99075.16;8479936;28;20235;-67
2022/01/17 06:29:45;;;;;;;35.63;28.07;;;;;;;5.45;63.60;99080.34;8479964;28;20229;-67
2022/01/17 06:33:48;;;;;;;39.60;29.13;;;;;;;5.54;63.70;99091.41;8480137;28;20238;-67
2022/01/17 06:37:51;;;;;;;40.77;32.50;;;;;;;5.44;63.98;99109.44;8483925;28;20420;-67
2022/01/17 06:41:56;;;;;;;33.13;26.40;;;;;;;5.51;63.53;99112.00;8486081;28;20405;-67
2022/01/17 06:45:59;;;;;;;32.13;25.87;;;;;;;5.54;63.64;99128.28;8486080;28;20225;-68
2022/01/17 06:50:04;;;;;;;31.17;24.90;;;;;;;5.64;63.38;99122.19;8486392;28;20573;-67
2022/01/17 06:54:07;;;;;;;32.17;24.93;;;;;;;5.77;62.93;99133.28;8485716;28;20280;-67
2022/01/17 06:58:11;;;;;;;31.63;25.17;;;;;;;5.71;63.27;99132.44;8485809;28;20233;-67
2022/01/17 07:02:14;;;;;;;28.13;23.27;;;;;;;5.79;63.16;99128.13;8485799;28;20236;-67
2022/01/17 07:06:22;;;;;;;29.43;23.73;;;;;;;5.97;61.92;99146.00;8485581;28;20241;-67
2022/01/17 07:10:28;;;;;;;29.80;23.33;;;;;;;5.82;62.35;99159.78;8485670;28;20221;-67
2022/01/17 07:14:33;;;;;;;31.27;22.70;;;;;;;5.95;62.54;99172.56;8451316;28;20222;-68
2022/01/17 07:18:36;;;;;;;32.80;24.73;;;;;;;5.85;62.67;99177.78;8451429;28;20234;-67
2022/01/17 07:22:39;;;;;;;31.33;23.90;;;;;;;5.60;63.46;99192.47;8451601;28;20236;-67
2022/01/17 07:26:42;;;;;;;30.77;24.23;;;;;;;5.79;63.07;99218.09;8451244;28;20282;-67
2022/01/17 07:30:47;;;;;;;33.10;25.20;;;;;;;5.78;63.11;99198.38;8451138;28;20230;-67
2022/01/17 07:34:52;;;;;;;29.20;22.73;;;;;;;5.82;63.46;99156.38;8451061;28;20303;-67
2022/01/17 07:38:55;;;;;;;27.20;22.80;;;;;;;6.00;62.87;99137.44;8450268;28;20226;-67
2022/01/17 07:42:58;;;;;;;28.83;23.07;;;;;;;5.91;62.73;99164.03;8450291;28;20226;-67
2022/01/17 07:47:05;;;;;;;27.00;23.07;;;;;;;5.95;63.30;99158.03;8450089;28;20237;-67
2022/01/17 07:51:08;;;;;;;25.93;20.70;;;;;;;6.09;62.60;99152.78;8450384;28;20541;-67
2022/01/17 07:55:11;;;;;;;28.70;22.43;;;;;;;5.97;63.18;99164.00;8450010;28;20232;-67
2022/01/17 07:59:14;;;;;;;26.73;21.30;;;;;;;6.04;62.50;99157.13;8450150;28;20234;-67
2022/01/17 08:03:19;;;;;;;28.00;20.73;;;;;;;6.11;62.51;99158.78;8449902;28;20225;-67
2022/01/17 08:07:21;;;;;;;23.87;19.83;;;;;;;6.12;62.68;99157.06;8449782;28;20229;-67
2022/01/17 08:11:31;;;;;;;24.20;19.57;;;;;;;6.14;62.71;99155.34;8449049;28;20222;-68
2022/01/17 08:15:34;;;;;;;25.40;20.20;;;;;;;6.01;63.18;99159.69;8449812;28;20222;-67
2022/01/17 08:19:39;;;;;;;25.33;19.97;;;;;;;6.25;62.33;99177.53;8449326;28;20540;-67
2022/01/17 08:23:42;;;;;;;22.97;18.40;;;;;;;6.19;62.22;99185.31;8449283;28;20226;-67
2022/01/17 08:27:45;;;;;;;26.13;20.50;;;;;;;6.30;61.96;99184.34;8449395;28;20438;-67
2022/01/17 08:31:48;;;;;;;22.10;18.03;;;;;;;5.97;62.58;99179.44;8449102;28;20431;-67
2022/01/17 08:35:53;;;;;;;21.03;17.80;;;;;;;6.07;62.47;99149.38;8448787;28;20414;-67
2022/01/17 08:40:18;;;;;;;20.83;17.40;;;;;;;6.22;62.01;99141.53;8448613;28;20222;-67
2022/01/17 08:44:21;;;;;;;21.70;17.73;;;;;;;6.18;61.86;99128.72;8449131;28;20226;-68
2022/01/17 08:48:25;;;;;;;25.50;18.57;;;;;;;6.09;62.51;99133.94;8448670;28;20559;-67
2022/01/17 08:52:29;;;;;;;21.10;18.03;;;;;;;6.10;62.34;99144.22;8448428;28;20253;-67
2022/01/17 08:56:33;;;;;;;21.43;17.60;;;;;;;5.97;62.42;99169.16;8447952;28;20222;-68
2022/01/17 09:00:37;;;;;;;21.17;17.93;;;;;;;6.08;62.27;99187.09;8447749;28;20249;-68
2022/01/17 09:04:55;;;;;;;23.43;17.83;;;;;;;6.16;61.96;99189.59;8448205;28;20464;-66
2022/01/17 09:08:59;;;;;;;23.63;17.40;;;;;;;6.26;61.78;99189.53;8448044;28;20241;-67
2022/01/17 09:13:03;;;;;;;22.37;17.37;;;;;;;6.17;61.73;99193.88;8447605;28;20246;-67
2022/01/17 09:17:07;;;;;;;22.17;17.90;;;;;;;6.04;62.04;99193.97;8447662;28;20238;-66
2022/01/17 09:21:10;;;;;;;20.83;16.90;;;;;;;6.13;62.27;99208.50;8447569;28;20234;-67
2022/01/17 09:25:15;;;;;;;19.60;16.40;;;;;;;6.21;62.72;99214.44;8447717;28;20229;-74
2022/01/17 09:29:18;;;;;;;25.07;15.00;;;;;;;8.74;70.79;99209.75;8447503;28;20297;-76
2022/01/17 09:33:21;;;;;;;22.50;15.73;;;;;;;9.26;61.81;99220.03;8447267;28;20230;-76
2022/01/17 09:37:24;;;;;;;18.33;15.90;;;;;;;7.30;58.99;99240.09;8446643;28;20424;-68
2022/01/17 09:41:31;;;;;;;18.00;15.27;;;;;;;6.89;59.45;99233.63;8440731;28;20283;-72
2022/01/17 09:45:34;;;;;;;20.53;16.20;;;;;;;6.75;60.19;99198.56;8446976;28;20218;-71
2022/01/17 09:49:42;;;;;;;18.00;15.07;;;;;;;6.48;60.42;99221.97;8447442;28;20226;-71
2022/01/17 09:53:45;;;;;;;18.13;15.23;;;;;;;6.60;60.53;99247.59;8444322;28;20240;-71
2022/01/17 09:57:53;;;;;;;19.27;14.97;;;;;;;6.64;60.30;99257.00;8446732;28;20241;-71
2022/01/17 10:01:56;;;;;;;19.27;15.13;;;;;;;6.48;60.99;99260.56;8447102;28;20409;-70
2022/01/17 10:05:59;;;;;;;16.73;14.23;;;;;;;6.40;60.88;99264.06;8447062;28;20230;-70
2022/01/17 10:10:02;;;;;;;18.67;15.30;;;;;;;6.50;60.28;99251.97;8448475;28;20237;-69
2022/01/17 10:14:23;;;;;;;17.07;13.07;;;;;;;6.60;60.25;99243.31;8453461;28;20417;-68
2022/01/17 10:18:32;;;;;;;17.63;13.47;;;;;;;6.51;60.24;99251.13;8452995;28;20237;-68
2022/01/17 10:22:45;;;;;;;19.00;13.97;;;;;;;6.69;59.67;99255.25;8453011;28;20410;-68
2022/01/17 10:27:08;;;;;;;19.00;13.87;;;;;;;6.61;59.98;99242.44;8452814;28;20240;-68
2022/01/17 10:34:52;;;;;;;18.07;14.80;;;;;;;6.69;59.94;99252.69;8452815;28;20537;-68
2022/01/17 10:35:57;;;;;;;17.97;14.27;;;;;;;6.63;60.42;99255.31;8457645;28;20316;-67
2022/01/17 10:40:02;;;;;;;18.20;14.37;;;;;;;6.56;59.84;99248.50;8452242;28;20237;-67
2022/01/17 10:44:05;;;;;;;18.77;14.57;;;;;;;6.36;60.54;99244.34;8451958;28;20222;-68
2022/01/17 10:48:10;;;;;;;17.57;14.30;;;;;;;6.66;59.38;99247.53;8453477;28;20237;-68
2022/01/17 10:52:13;;;;;;;16.67;14.10;;;;;;;6.61;59.63;99242.44;8452469;28;20222;-68
2022/01/17 10:56:19;;;;;;;18.73;14.47;;;;;;;6.51;59.90;99242.53;8452061;28;20293;-67
2022/01/17 11:00:24;;;;;;;15.77;13.67;;;;;;;6.64;59.85;99250.16;8451848;28;20234;-67
2022/01/17 11:04:36;;;;;;;17.33;14.40;;;;;;;6.47;59.69;99233.97;8451730;28;20533;-67
2022/01/17 11:08:40;;;;;;;16.53;13.70;;;;;;;6.64;59.53;99213.25;8450947;28;20226;-68
2022/01/17 11:12:43;;;;;;;18.17;13.80;;;;;;;6.52;59.71;99195.34;8451376;28;20236;-68
2022/01/17 11:16:46;;;;;;;16.47;14.00;;;;;;;6.63;59.50;99202.09;8451278;28;20237;-67
2022/01/17 11:20:54;;;;;;;16.80;13.90;;;;;;;6.40;60.15;99212.59;8451113;28;20241;-68
2022/01/17 11:24:59;;;;;;;16.27;13.60;;;;;;;6.25;60.36;99216.13;8451053;28;20226;-67
2022/01/17 11:29:02;;;;;;;15.63;12.87;;;;;;;6.19;60.94;99229.03;8451067;28;20230;-68
2022/01/17 11:33:07;;;;;;;17.87;13.40;;;;;;;6.59;59.58;99233.03;8451020;28;20436;-69
2022/01/17 11:37:13;;;;;;;18.47;13.30;;;;;;;6.61;59.73;99218.44;8451019;28;20256;-68
2022/01/17 11:41:24;;;;;;;18.10;14.50;;;;;;;6.71;59.13;99206.34;8450802;28;20237;-67
2022/01/17 11:45:42;;;;;;;21.20;14.87;;;;;;;6.67;58.97;99202.94;8450859;28;20230;-67
2022/01/17 11:49:45;;;;;;;14.00;11.77;;;;;;;6.65;59.45;99202.94;8447808;28;20241;-67
2022/01/17 11:53:51;;;;;;;16.27;12.73;;;;;;;6.88;58.85;99173.56;8450593;28;20261;-68
2022/01/17 11:58:19;;;;;;;15.40;11.93;;;;;;;6.57;59.85;99150.69;8450341;28;20230;-67
2022/01/17 12:02:28;;;;;;;16.10;12.00;;;;;;;6.61;59.77;99121.47;8450176;28;20288;-68
2022/01/17 12:06:34;;;;;;;17.23;12.20;;;;;;;6.57;59.19;99142.97;8448105;28;20226;-68
2022/01/17 12:10:45;;;;;;;13.83;11.70;;;;;;;6.58;59.47;99164.41;8449295;28;20524;-68
2022/01/17 12:15:04;;;;;;;13.43;11.10;;;;;;;6.67;59.47;99150.59;8449253;28;20240;-67
2022/01/17 12:19:10;;;;;;;15.27;11.33;;;;;;;6.85;59.09;99143.56;8449464;28;20226;-67
2022/01/17 12:23:24;;;;;;;14.67;11.87;;;;;;;6.95;58.83;99143.44;8448358;28;20246;-68
2022/01/17 12:27:29;;;;;;;15.53;11.90;;;;;;;7.05;58.63;99114.13;8448921;28;20233;-68
2022/01/17 12:31:39;;;;;;;15.53;11.57;;;;;;;7.07;58.11;99081.47;8448240;28;20274;-67
2022/01/17 12:35:46;;;;;;;15.87;11.97;;;;;;;7.08;58.39;99097.78;8447827;28;20223;-67
2022/01/17 12:39:51;;;;;;;14.07;11.10;;;;;;;7.05;58.14;99085.81;8448323;28;20563;-67
2022/01/17 12:43:56;;;;;;;13.63;11.60;;;;;;;6.88;58.91;99118.63;8447897;28;20230;-68
2022/01/17 12:48:01;;;;;;;13.13;11.07;;;;;;;6.96;58.65;99109.94;8448127;28;20250;-68
2022/01/17 12:52:05;;;;;;;12.27;10.23;;;;;;;6.72;58.89;99105.94;8448507;28;20417;-68
2022/01/17 12:56:09;;;;;;;15.60;11.00;;;;;;;6.50;59.66;99087.25;8448094;28;20225;-68
2022/01/17 13:00:20;;;;;;;13.27;10.43;;;;;;;6.73;58.89;99106.78;8448058;28;20229;-67
2022/01/17 13:04:23;;;;;;;12.73;10.50;;;;;;;6.89;58.80;99125.47;8448306;28;20494;-69
2022/01/17 13:08:26;;;;;;;13.53;10.77;;;;;;;6.85;58.93;99101.47;8448070;28;20226;-67
2022/01/17 13:12:29;;;;;;;13.33;9.77;;;;;;;6.58;59.32;99100.06;8448214;28;20245;-68
2022/01/17 13:16:35;;;;;;;16.13;11.10;;;;;;;6.53;59.59;99101.81;8447551;28;20222;-69
2022/01/17 13:20:38;;;;;;;14.20;10.10;;;;;;;6.55;59.80;99089.78;8447417;28;20237;-68
2022/01/17 13:24:54;;;;;;;11.53;9.97;;;;;;;6.77;59.20;99109.28;8447233;28;20226;-68
2022/01/17 13:28:59;;;;;;;12.90;10.10;;;;;;;6.68;59.55;99118.81;8446485;28;20241;-68
2022/01/17 13:33:05;;;;;;;14.00;10.20;;;;;;;6.69;59.82;99123.97;8444057;28;20226;-69
2022/01/17 13:37:11;;;;;;;11.63;9.93;;;;;;;6.45;60.19;99125.03;8446768;28;20232;-68
2022/01/17 13:41:29;;;;;;;12.33;10.20;;;;;;;6.61;59.73;99123.19;8446916;28;20398;-68
2022/01/17 13:45:36;;;;;;;14.23;10.57;;;;;;;6.75;60.05;99115.31;8439288;28;20332;-68
2022/01/17 13:49:42;;;;;;;12.23;10.07;;;;;;;6.46;60.56;99114.75;8453826;28;20541;-69
2022/01/17 13:53:45;;;;;;;12.73;10.17;;;;;;;6.41;60.42;99113.06;8453772;28;20559;-68
2022/01/17 13:57:48;;;;;;;15.53;10.80;;;;;;;6.25;60.61;99115.78;8453694;28;20233;-67
2022/01/17 14:01:52;;;;;;;15.47;10.53;;;;;;;6.30;60.78;99102.03;8453385;28;20295;-68
2022/01/17 14:05:58;;;;;;;15.17;12.23;;;;;;;6.55;60.37;99103.53;8453450;28;20297;-67
2022/01/17 14:10:02;;;;;;;13.83;10.80;;;;;;;6.37;60.70;99090.81;8453653;28;20329;-68
2022/01/17 14:14:08;;;;;;;13.60;10.20;;;;;;;6.52;60.80;99089.81;8453045;28;20232;-67
2022/01/17 14:18:14;;;;;;;12.60;10.03;;;;;;;6.32;61.51;99101.16;8453260;28;20226;-67
2022/01/17 14:22:18;;;;;;;14.20;10.07;;;;;;;6.37;61.21;99095.97;8453154;28;20233;-67
2022/01/17 14:26:27;;;;;;;13.70;10.67;;;;;;;6.52;60.55;99095.81;8452733;28;20279;-68
2022/01/17 14:30:32;;;;;;;11.63;10.03;;;;;;;6.63;60.81;99108.59;8452083;28;20226;-67
2022/01/17 14:34:37;;;;;;;11.87;10.37;;;;;;;6.48;61.32;99119.88;8451787;28;20230;-68
2022/01/17 14:38:46;;;;;;;13.20;10.37;;;;;;;6.35;61.82;99126.84;8451478;28;20225;-67
2022/01/17 14:42:49;;;;;;;12.93;10.50;;;;;;;6.28;61.99;99129.50;8449896;28;20233;-67
2022/01/17 14:46:58;;;;;;;14.23;9.50;;;;;;;6.23;62.41;99127.81;8451416;28;20295;-69
2022/01/17 14:51:17;;;;;;;12.65;10.40;;;;;;;6.31;62.14;99114.88;8449340;28;20671;-69
2022/01/17 14:55:50;;;;;;;11.47;10.00;;;;;;;6.38;62.15;99126.00;8450042;28;20218;-69
2022/01/17 14:59:51;;;;;;;12.07;10.70;;;;;;;6.14;62.65;99145.03;8435697;28;20234;-69
2022/01/17 15:03:55;;;;;;;11.07;9.80;;;;;;;6.28;62.93;99155.22;8451480;28;20256;-69
2022/01/17 15:07:58;;;;;;;13.43;10.40;;;;;;;6.17;63.04;99138.16;8451459;28;20225;-69
2022/01/17 15:12:04;;;;;;;13.93;9.40;;;;;;;5.81;64.03;99134.94;8451389;28;20378;-68
2022/01/17 15:16:07;;;;;;;14.47;12.30;;;;;;;6.12;63.52;99134.75;8450715;28;20230;-69
2022/01/17 15:20:11;;;;;;;12.83;10.50;;;;;;;6.18;63.28;99151.88;8450794;28;20236;-69
2022/01/17 15:24:14;;;;;;;11.40;10.07;;;;;;;6.28;63.18;99166.34;8457148;28;20222;-70
2022/01/17 15:28:19;;;;;;;13.60;10.67;;;;;;;6.35;62.87;99174.88;8465083;28;20218;-69
2022/01/17 15:32:23;;;;;;;15.10;10.97;;;;;;;6.17;63.93;99184.47;8465322;28;20563;-69
2022/01/17 15:36:26;;;;;;;14.30;12.07;;;;;;;6.19;63.44;99202.47;8473853;28;20237;-69
2022/01/17 15:40:30;;;;;;;13.57;10.90;;;;;;;6.07;64.10;99191.38;8473156;28;20248;-69
2022/01/17 15:44:36;;;;;;;14.90;11.57;;;;;;;6.21;64.15;99198.16;8460309;28;20218;-69
2022/01/17 15:48:40;;;;;;;16.27;12.53;;;;;;;6.16;65.15;99202.47;8440958;28;20222;-69
2022/01/17 15:52:43;;;;;;;13.90;11.37;;;;;;;6.21;65.08;99204.16;8446972;28;20319;-69
2022/01/17 15:56:51;;;;;;;15.20;12.20;;;;;;;6.15;65.67;99200.75;8449262;28;20289;-69
2022/01/17 16:00:55;;;;;;;13.77;11.57;;;;;;;6.02;66.68;99210.28;8459974;28;20240;-70
2022/01/17 16:04:58;;;;;;;13.47;12.03;;;;;;;6.17;65.98;99222.16;8449055;28;20568;-66
2022/01/17 16:09:01;;;;;;;13.53;11.97;;;;;;;6.06;66.90;99235.97;8448737;28;20232;-67
2022/01/17 16:13:04;;;;;;;13.00;11.03;;;;;;;6.15;67.00;99229.03;8446480;28;20232;-66
2022/01/17 16:17:10;;;;;;;16.87;13.07;;;;;;;6.16;66.95;99228.19;8448779;28;20253;-66
2022/01/17 16:21:13;;;;;;;14.73;12.13;;;;;;;6.20;66.91;99230.72;8449103;28;20549;-66
2022/01/17 16:25:16;;;;;;;15.83;12.33;;;;;;;6.40;66.55;99233.19;8449309;28;20554;-66
2022/01/17 16:29:19;;;;;;;13.27;11.60;;;;;;;6.36;66.38;99241.78;8449390;28;20226;-66
2022/01/17 16:33:26;;;;;;;15.57;12.53;;;;;;;6.30;66.34;99228.94;8448240;28;20425;-67
2022/01/17 16:37:43;;;;;;;14.57;11.97;;;;;;;6.20;66.53;99242.75;8437699;28;20222;-67
2022/01/17 16:41:46;;;;;;;14.20;12.50;;;;;;;6.09;67.06;99241.94;8447786;28;20229;-72
2022/01/17 16:46:09;;;;;;;15.30;12.23;;;;;;;6.14;66.64;99242.78;8446585;28;20229;-71
2022/01/17 16:50:16;;;;;;;13.63;12.27;;;;;;;6.19;66.61;99248.75;8447141;28;20230;-71
2022/01/17 16:54:18;;;;;;;17.50;12.90;;;;;;;6.27;66.69;99254.72;8447182;28;20529;-71
2022/01/17 16:58:26;;;;;;;15.27;12.00;;;;;;;6.06;67.20;99260.84;8445338;28;20328;-71
2022/01/17 17:02:30;;;;;;;15.80;12.07;;;;;;;6.22;66.60;99262.44;8446581;28;20290;-68
2022/01/17 17:06:34;;;;;;;14.57;12.40;;;;;;;6.07;67.14;99260.84;8448642;28;20222;-68
2022/01/17 17:10:48;;;;;;;14.23;12.20;;;;;;;6.23;66.84;99268.47;8437356;28;20234;-68
2022/01/17 17:14:51;;;;;;;12.70;11.37;;;;;;;6.42;66.40;99270.03;8446532;28;20242;-68
2022/01/17 17:18:54;;;;;;;13.00;11.07;;;;;;;6.29;66.86;99275.28;8445708;28;21628;-69
2022/01/17 17:22:59;;;;;;;14.33;11.90;;;;;;;6.25;67.41;99292.44;8445378;28;20293;-68
2022/01/17 17:27:02;;;;;;;12.93;11.50;;;;;;;6.31;66.86;99301.84;8444752;28;20230;-68
2022/01/17 17:31:05;;;;;;;13.20;11.63;;;;;;;6.32;66.99;99312.16;8446552;28;20226;-67
2022/01/17 17:35:09;;;;;;;16.97;12.90;;;;;;;6.31;67.05;99307.84;8446538;28;20225;-67
2022/01/17 17:39:14;;;;;;;14.00;12.13;;;;;;;6.35;67.02;99306.97;8447143;28;20241;-67
2022/01/17 17:43:17;;;;;;;13.33;12.00;;;;;;;6.38;67.39;99316.41;8446822;28;20393;-67
2022/01/17 17:47:20;;;;;;;12.93;11.63;;;;;;;6.50;66.72;99323.19;8447367;28;20230;-69
2022/01/17 17:51:23;;;;;;;14.30;11.97;;;;;;;6.51;66.75;99327.44;8447232;28;20230;-68
2022/01/17 17:55:27;;;;;;;14.33;12.83;;;;;;;6.92;64.96;99334.06;8446718;28;20402;-71
2022/01/17 17:59:30;;;;;;;13.63;11.83;;;;;;;6.28;66.84;99335.31;8446714;28;20272;-71
2022/01/17 18:03:33;;;;;;;12.93;11.50;;;;;;;6.55;66.72;99329.13;8445906;28;20234;-73
2022/01/17 18:07:36;;;;;;;13.27;11.97;;;;;;;6.33;67.13;99329.28;8447029;28;20470;-73
2022/01/17 18:11:41;;;;;;;12.47;11.17;;;;;;;6.43;67.06;99353.22;8446846;28;20237;-73
2022/01/17 18:15:44;;;;;;;13.33;11.87;;;;;;;6.38;66.69;99353.28;8446614;28;20242;-73
2022/01/17 18:19:47;;;;;;;13.23;11.53;;;;;;;6.25;67.73;99362.75;8446902;28;20650;-73
2022/01/17 18:23:50;;;;;;;12.77;11.37;;;;;;;6.45;66.57;99339.50;8446791;28;20257;-73
2022/01/17 18:27:55;;;;;;;12.87;11.07;;;;;;;6.42;66.78;99331.81;8465657;28;20233;-72
2022/01/17 18:31:58;;;;;;;13.43;12.03;;;;;;;6.41;67.02;99347.25;8460133;28;20236;-73
2022/01/17 18:36:02;;;;;;;14.37;12.87;;;;;;;6.45;66.71;99361.81;8452580;28;20537;-73
2022/01/17 18:40:06;;;;;;;14.50;13.00;;;;;;;6.33;66.67;99354.16;8452293;28;20237;-74
2022/01/17 18:44:12;;;;;;;15.10;12.03;;;;;;;6.43;66.96;99348.94;8452341;28;20245;-73
2022/01/17 18:48:15;;;;;;;14.80;12.00;;;;;;;6.42;66.73;99359.25;8452023;28;20237;-72
2022/01/17 18:52:20;;;;;;;12.10;10.90;;;;;;;6.49;67.07;99360.06;8452405;28;20237;-71
2022/01/17 18:56:23;;;;;;;12.53;11.20;;;;;;;6.28;67.29;99358.47;8452166;28;20233;-72
2022/01/17 19:00:28;;;;;;;14.00;11.87;;;;;;;6.43;66.71;99374.66;8451683;28;20238;-69
2022/01/17 19:04:33;;;;;;;11.40;10.23;;;;;;;6.33;67.47;99374.75;8451296;28;20226;-70